sensor_id;sensor_type;location;lat;lon;timestamp;pressure;altitude;pressure_sealevel;temperature;humidity
77090;BME280;66028;53.558;9.950;2024-02-23T00:01:51;97622.63;;;9.18;64.10
77090;BME280;66028;53.558;9.950;2024-02-23T00:04:16;97641.06;;;9.16;64.59
77090;BME280;66028;53.558;9.950;2024-02-23T00:06:43;97637.25;;;9.17;64.95
77090;BME280;66028;53.558;9.950;2024-02-23T00:09:09;97634.56;;;9.17;65.06
77090;BME280;66028;53.558;9.950;2024-02-23T00:11:35;97644.97;;;9.10;67.18
77090;BME280;66028;53.558;9.950;2024-02-23T00:14:05;97662.84;;;8.83;68.66
77090;BME280;66028;53.558;9.950;2024-02-23T00:16:30;97668.09;;;8.66;69.67
77090;BME280;66028;53.558;9.950;2024-02-23T00:18:55;97667.00;;;8.67;69.56
77090;BME280;66028;53.558;9.950;2024-02-23T00:21:20;97679.53;;;8.72;69.56
77090;BME280;66028;53.558;9.950;2024-02-23T00:23:45;97687.13;;;8.83;68.65
77090;BME280;66028;53.558;9.950;2024-02-23T00:26:11;97690.44;;;8.80;68.74
77090;BME280;66028;53.558;9.950;2024-02-23T00:28:36;97686.94;;;8.80;68.84
77090;BME280;66028;53.558;9.950;2024-02-23T00:31:01;97678.22;;;8.83;66.58
77090;BME280;66028;53.558;9.950;2024-02-23T00:33:26;97664.53;;;8.93;64.67
77090;BME280;66028;53.558;9.950;2024-02-23T00:35:51;97708.97;;;8.95;64.42
77090;BME280;66028;53.558;9.950;2024-02-23T00:38:17;97716.91;;;8.92;64.24
77090;BME280;66028;53.558;9.950;2024-02-23T00:40:42;97709.59;;;8.92;64.08
77090;BME280;66028;53.558;9.950;2024-02-23T00:43:07;97717.69;;;8.92;63.25
77090;BME280;66028;53.558;9.950;2024-02-23T00:45:33;97739.16;;;8.84;64.71
77090;BME280;66028;53.558;9.950;2024-02-23T00:47:58;97761.69;;;8.52;69.95
77090;BME280;66028;53.558;9.950;2024-02-23T00:50:24;97830.16;;;7.72;77.27
77090;BME280;66028;53.558;9.950;2024-02-23T00:52:51;97812.41;;;6.91;81.77
77090;BME280;66028;53.558;9.950;2024-02-23T00:55:17;97818.22;;;6.56;83.96
77090;BME280;66028;53.558;9.950;2024-02-23T00:57:42;97817.88;;;6.38;84.89
77090;BME280;66028;53.558;9.950;2024-02-23T01:00:08;97800.47;;;6.31;85.76
77090;BME280;66028;53.558;9.950;2024-02-23T01:02:34;97858.78;;;6.30;86.40
77090;BME280;66028;53.558;9.950;2024-02-23T01:04:59;97833.59;;;6.26;86.14
77090;BME280;66028;53.558;9.950;2024-02-23T01:07:25;97850.25;;;6.23;84.62
77090;BME280;66028;53.558;9.950;2024-02-23T01:09:50;97866.63;;;6.27;85.47
77090;BME280;66028;53.558;9.950;2024-02-23T01:12:16;97895.38;;;6.26;85.21
77090;BME280;66028;53.558;9.950;2024-02-23T01:14:41;97890.00;;;6.26;85.67
77090;BME280;66028;53.558;9.950;2024-02-23T01:17:06;97891.31;;;6.29;85.99
77090;BME280;66028;53.558;9.950;2024-02-23T01:19:31;97901.25;;;6.28;85.99
77090;BME280;66028;53.558;9.950;2024-02-23T01:21:57;97897.28;;;6.21;85.41
77090;BME280;66028;53.558;9.950;2024-02-23T01:24:26;97901.59;;;6.22;85.57
77090;BME280;66028;53.558;9.950;2024-02-23T01:26:53;97935.19;;;6.19;85.68
77090;BME280;66028;53.558;9.950;2024-02-23T01:29:19;97938.41;;;6.16;85.55
77090;BME280;66028;53.558;9.950;2024-02-23T01:31:44;97944.59;;;6.17;84.74
77090;BME280;66028;53.558;9.950;2024-02-23T01:34:10;97955.88;;;6.19;84.86
77090;BME280;66028;53.558;9.950;2024-02-23T01:36:35;97953.72;;;6.21;85.50
77090;BME280;66028;53.558;9.950;2024-02-23T01:39:01;97953.19;;;6.19;84.49
77090;BME280;66028;53.558;9.950;2024-02-23T01:41:26;97974.94;;;6.22;85.26
77090;BME280;66028;53.558;9.950;2024-02-23T01:43:51;97984.31;;;6.25;84.31
77090;BME280;66028;53.558;9.950;2024-02-23T01:46:17;97987.28;;;6.23;84.39
77090;BME280;66028;53.558;9.950;2024-02-23T01:48:44;97996.41;;;6.22;84.90
77090;BME280;66028;53.558;9.950;2024-02-23T01:51:11;98008.78;;;6.23;83.23
77090;BME280;66028;53.558;9.950;2024-02-23T01:53:36;98010.38;;;6.24;83.09
77090;BME280;66028;53.558;9.950;2024-02-23T01:56:02;98022.22;;;6.23;82.37
77090;BME280;66028;53.558;9.950;2024-02-23T01:58:29;98039.13;;;6.24;83.52
77090;BME280;66028;53.558;9.950;2024-02-23T02:00:55;98060.91;;;6.22;82.57
77090;BME280;66028;53.558;9.950;2024-02-23T02:03:20;98059.84;;;6.18;80.42
77090;BME280;66028;53.558;9.950;2024-02-23T02:05:45;98052.38;;;6.10;80.25
77090;BME280;66028;53.558;9.950;2024-02-23T02:08:10;98073.66;;;6.01;80.15
77090;BME280;66028;53.558;9.950;2024-02-23T02:10:36;98095.94;;;5.92;80.21
77090;BME280;66028;53.558;9.950;2024-02-23T02:13:03;98097.31;;;5.89;80.82
77090;BME280;66028;53.558;9.950;2024-02-23T02:15:29;98126.56;;;5.86;80.87
77090;BME280;66028;53.558;9.950;2024-02-23T02:17:54;98131.66;;;5.87;80.59
77090;BME280;66028;53.558;9.950;2024-02-23T02:20:24;98135.44;;;5.86;79.39
77090;BME280;66028;53.558;9.950;2024-02-23T02:22:49;98142.41;;;5.82;79.25
77090;BME280;66028;53.558;9.950;2024-02-23T02:25:15;98147.25;;;5.80;80.41
77090;BME280;66028;53.558;9.950;2024-02-23T02:27:43;98155.06;;;5.76;80.01
77090;BME280;66028;53.558;9.950;2024-02-23T02:30:11;98167.16;;;5.74;81.15
77090;BME280;66028;53.558;9.950;2024-02-23T02:32:36;98163.13;;;5.71;80.85
77090;BME280;66028;53.558;9.950;2024-02-23T02:35:02;98197.22;;;5.71;80.97
77090;BME280;66028;53.558;9.950;2024-02-23T02:37:27;98174.38;;;5.68;80.83
77090;BME280;66028;53.558;9.950;2024-02-23T02:39:53;98202.31;;;5.62;80.75
77090;BME280;66028;53.558;9.950;2024-02-23T02:42:18;98194.53;;;5.61;82.26
77090;BME280;66028;53.558;9.950;2024-02-23T02:44:43;98193.75;;;5.55;82.20
77090;BME280;66028;53.558;9.950;2024-02-23T02:47:08;98211.72;;;5.50;83.02
77090;BME280;66028;53.558;9.950;2024-02-23T02:49:33;98224.88;;;5.46;83.26
77090;BME280;66028;53.558;9.950;2024-02-23T02:51:59;98225.41;;;5.38;82.41
77090;BME280;66028;53.558;9.950;2024-02-23T02:54:24;98234.81;;;5.35;82.38
77090;BME280;66028;53.558;9.950;2024-02-23T02:56:49;98246.06;;;5.37;82.21
77090;BME280;66028;53.558;9.950;2024-02-23T02:59:15;98247.69;;;5.33;82.96
77090;BME280;66028;53.558;9.950;2024-02-23T03:01:41;98254.13;;;5.37;82.48
77090;BME280;66028;53.558;9.950;2024-02-23T03:04:08;98256.28;;;5.30;82.46
77090;BME280;66028;53.558;9.950;2024-02-23T03:06:33;98265.13;;;5.31;82.94
77090;BME280;66028;53.558;9.950;2024-02-23T03:08:58;98270.75;;;5.29;82.65
77090;BME280;66028;53.558;9.950;2024-02-23T03:11:24;98276.91;;;5.25;82.48
77090;BME280;66028;53.558;9.950;2024-02-23T03:13:49;98301.06;;;5.25;82.26
77090;BME280;66028;53.558;9.950;2024-02-23T03:16:18;98304.25;;;5.22;81.51
77090;BME280;66028;53.558;9.950;2024-02-23T03:18:43;98294.91;;;5.19;82.12
77090;BME280;66028;53.558;9.950;2024-02-23T03:21:09;98290.06;;;5.16;81.50
77090;BME280;66028;53.558;9.950;2024-02-23T03:23:37;98302.13;;;5.19;81.43
77090;BME280;66028;53.558;9.950;2024-02-23T03:26:03;98322.78;;;5.23;81.32
77090;BME280;66028;53.558;9.950;2024-02-23T03:28:28;98329.75;;;5.24;79.60
77090;BME280;66028;53.558;9.950;2024-02-23T03:30:53;98340.22;;;5.26;80.19
77090;BME280;66028;53.558;9.950;2024-02-23T03:33:19;98328.16;;;5.23;79.92
77090;BME280;66028;53.558;9.950;2024-02-23T03:35:44;98344.78;;;5.25;80.06
77090;BME280;66028;53.558;9.950;2024-02-23T03:38:09;98339.69;;;5.19;80.61
77090;BME280;66028;53.558;9.950;2024-02-23T03:40:35;98344.50;;;5.17;81.13
77090;BME280;66028;53.558;9.950;2024-02-23T03:43:01;98345.81;;;5.09;81.02
77090;BME280;66028;53.558;9.950;2024-02-23T03:45:27;98350.91;;;5.05;80.63
77090;BME280;66028;53.558;9.950;2024-02-23T03:47:52;98362.16;;;5.02;79.93
77090;BME280;66028;53.558;9.950;2024-02-23T03:50:17;98361.09;;;5.03;80.72
77090;BME280;66028;53.558;9.950;2024-02-23T03:52:42;98373.94;;;5.01;80.04
77090;BME280;66028;53.558;9.950;2024-02-23T03:55:08;98376.63;;;5.01;80.11
77090;BME280;66028;53.558;9.950;2024-02-23T03:57:33;98379.03;;;4.98;79.99
77090;BME280;66028;53.558;9.950;2024-02-23T03:59:59;98388.69;;;4.94;80.05
77090;BME280;66028;53.558;9.950;2024-02-23T04:02:24;98394.28;;;4.92;79.63
77090;BME280;66028;53.558;9.950;2024-02-23T04:04:49;98390.75;;;4.87;79.11
77090;BME280;66028;53.558;9.950;2024-02-23T04:07:15;98414.63;;;4.88;79.07
77090;BME280;66028;53.558;9.950;2024-02-23T04:09:40;98397.44;;;4.84;78.57
77090;BME280;66028;53.558;9.950;2024-02-23T04:12:06;98392.09;;;4.84;78.60
77090;BME280;66028;53.558;9.950;2024-02-23T04:14:32;98403.88;;;4.83;78.78
77090;BME280;66028;53.558;9.950;2024-02-23T04:16:58;98415.16;;;4.85;79.29
77090;BME280;66028;53.558;9.950;2024-02-23T04:19:24;98416.00;;;4.91;78.57
77090;BME280;66028;53.558;9.950;2024-02-23T04:21:49;98432.63;;;4.93;78.64
77090;BME280;66028;53.558;9.950;2024-02-23T04:24:14;98427.81;;;4.95;79.48
77090;BME280;66028;53.558;9.950;2024-02-23T04:26:39;98444.72;;;5.00;78.85
77090;BME280;66028;53.558;9.950;2024-02-23T04:29:05;98443.72;;;5.06;77.58
77090;BME280;66028;53.558;9.950;2024-02-23T04:31:30;98456.00;;;5.02;78.01
77090;BME280;66028;53.558;9.950;2024-02-23T04:33:55;98447.97;;;5.02;77.97
77090;BME280;66028;53.558;9.950;2024-02-23T04:36:21;98445.28;;;5.02;78.59
77090;BME280;66028;53.558;9.950;2024-02-23T04:38:46;98455.75;;;5.04;78.88
77090;BME280;66028;53.558;9.950;2024-02-23T04:41:11;98451.72;;;5.01;78.73
77090;BME280;66028;53.558;9.950;2024-02-23T04:43:36;98448.75;;;4.98;79.21
77090;BME280;66028;53.558;9.950;2024-02-23T04:46:02;98449.53;;;4.98;78.28
77090;BME280;66028;53.558;9.950;2024-02-23T04:48:27;98453.03;;;4.99;78.45
77090;BME280;66028;53.558;9.950;2024-02-23T04:50:52;98504.28;;;5.02;78.57
77090;BME280;66028;53.558;9.950;2024-02-23T04:53:18;98467.56;;;5.03;78.56
77090;BME280;66028;53.558;9.950;2024-02-23T04:55:44;98477.72;;;5.01;78.70
77090;BME280;66028;53.558;9.950;2024-02-23T04:58:09;98478.28;;;5.03;78.70
77090;BME280;66028;53.558;9.950;2024-02-23T05:00:37;98489.50;;;5.00;78.94
77090;BME280;66028;53.558;9.950;2024-02-23T05:03:02;98495.69;;;5.00;78.81
77090;BME280;66028;53.558;9.950;2024-02-23T05:05:29;98491.63;;;4.98;78.90
77090;BME280;66028;53.558;9.950;2024-02-23T05:07:54;98504.78;;;4.94;79.46
77090;BME280;66028;53.558;9.950;2024-02-23T05:10:20;98503.97;;;4.94;79.44
77090;BME280;66028;53.558;9.950;2024-02-23T05:12:46;98508.47;;;4.88;79.41
77090;BME280;66028;53.558;9.950;2024-02-23T05:15:11;98512.28;;;4.92;78.95
77090;BME280;66028;53.558;9.950;2024-02-23T05:17:36;98525.69;;;4.92;79.01
77090;BME280;66028;53.558;9.950;2024-02-23T05:20:02;98505.25;;;4.86;79.27
77090;BME280;66028;53.558;9.950;2024-02-23T05:22:32;98507.38;;;4.84;79.54
77090;BME280;66028;53.558;9.950;2024-02-23T05:24:58;98521.59;;;4.85;79.15
77090;BME280;66028;53.558;9.950;2024-02-23T05:27:23;98526.69;;;4.86;78.39
77090;BME280;66028;53.558;9.950;2024-02-23T05:29:48;98530.19;;;4.87;78.45
77090;BME280;66028;53.558;9.950;2024-02-23T05:32:13;98555.94;;;4.88;78.23
77090;BME280;66028;53.558;9.950;2024-02-23T05:34:39;98542.22;;;4.84;77.81
77090;BME280;66028;53.558;9.950;2024-02-23T05:37:04;98547.31;;;4.81;78.54
77090;BME280;66028;53.558;9.950;2024-02-23T05:39:29;98553.25;;;4.88;78.20
77090;BME280;66028;53.558;9.950;2024-02-23T05:41:55;98540.97;;;4.92;78.27
77090;BME280;66028;53.558;9.950;2024-02-23T05:44:20;98538.03;;;4.93;77.80
77090;BME280;66028;53.558;9.950;2024-02-23T05:46:45;98544.44;;;4.92;77.88
77090;BME280;66028;53.558;9.950;2024-02-23T05:49:11;98548.44;;;4.90;77.40
77090;BME280;66028;53.558;9.950;2024-02-23T05:51:36;98562.09;;;4.88;77.59
77090;BME280;66028;53.558;9.950;2024-02-23T05:54:01;98557.56;;;4.89;77.04
77090;BME280;66028;53.558;9.950;2024-02-23T05:56:26;98553.22;;;4.83;77.17
77090;BME280;66028;53.558;9.950;2024-02-23T05:58:52;98573.34;;;4.85;77.00
77090;BME280;66028;53.558;9.950;2024-02-23T06:01:18;98578.50;;;4.92;76.46
77090;BME280;66028;53.558;9.950;2024-02-23T06:03:44;98586.78;;;4.90;76.65
77090;BME280;66028;53.558;9.950;2024-02-23T06:06:10;98578.69;;;4.85;77.21
77090;BME280;66028;53.558;9.950;2024-02-23T06:08:35;98602.81;;;4.80;77.30
77090;BME280;66028;53.558;9.950;2024-02-23T06:11:01;98609.25;;;4.84;75.72
77090;BME280;66028;53.558;9.950;2024-02-23T06:13:28;98610.84;;;4.80;76.31
77090;BME280;66028;53.558;9.950;2024-02-23T06:15:53;98621.00;;;5.10;77.08
77090;BME280;66028;53.558;9.950;2024-02-23T06:18:19;98617.81;;;5.13;76.71
77090;BME280;66028;53.558;9.950;2024-02-23T06:20:44;98627.22;;;5.16;76.53
77090;BME280;66028;53.558;9.950;2024-02-23T06:23:09;98622.19;;;5.24;75.33
77090;BME280;66028;53.558;9.950;2024-02-23T06:25:34;98632.16;;;4.97;75.24
77090;BME280;66028;53.558;9.950;2024-02-23T06:28:00;98633.69;;;4.88;76.00
77090;BME280;66028;53.558;9.950;2024-02-23T06:30:25;98650.00;;;4.81;76.23
77090;BME280;66028;53.558;9.950;2024-02-23T06:32:50;98649.94;;;4.76;75.55
77090;BME280;66028;53.558;9.950;2024-02-23T06:35:16;98627.13;;;4.74;75.92
77090;BME280;66028;53.558;9.950;2024-02-23T06:37:41;98652.06;;;4.74;75.74
77090;BME280;66028;53.558;9.950;2024-02-23T06:40:06;98665.97;;;4.71;76.12
77090;BME280;66028;53.558;9.950;2024-02-23T06:42:33;98666.72;;;4.66;76.24
77090;BME280;66028;53.558;9.950;2024-02-23T06:44:58;98662.50;;;4.70;76.61
77090;BME280;66028;53.558;9.950;2024-02-23T06:47:23;98668.59;;;4.66;76.45
77090;BME280;66028;53.558;9.950;2024-02-23T06:49:49;98674.53;;;4.68;76.31
77090;BME280;66028;53.558;9.950;2024-02-23T06:52:15;98689.31;;;4.70;76.64
77090;BME280;66028;53.558;9.950;2024-02-23T06:54:40;98688.19;;;4.66;76.89
77090;BME280;66028;53.558;9.950;2024-02-23T06:57:05;98698.41;;;4.69;76.50
77090;BME280;66028;53.558;9.950;2024-02-23T06:59:30;98711.75;;;4.64;77.18
77090;BME280;66028;53.558;9.950;2024-02-23T07:01:57;98705.63;;;4.69;77.03
77090;BME280;66028;53.558;9.950;2024-02-23T07:04:22;98712.06;;;4.68;77.23
77090;BME280;66028;53.558;9.950;2024-02-23T07:06:47;98717.22;;;4.75;77.18
77090;BME280;66028;53.558;9.950;2024-02-23T07:09:13;98724.84;;;4.88;76.69
77090;BME280;66028;53.558;9.950;2024-02-23T07:11:38;98726.81;;;4.97;76.23
77090;BME280;66028;53.558;9.950;2024-02-23T07:14:04;98727.44;;;5.04;76.06
77090;BME280;66028;53.558;9.950;2024-02-23T07:16:30;98742.91;;;4.97;76.26
77090;BME280;66028;53.558;9.950;2024-02-23T07:18:55;98750.66;;;4.94;77.06
77090;BME280;66028;53.558;9.950;2024-02-23T07:21:21;98746.31;;;4.88;77.17
77090;BME280;66028;53.558;9.950;2024-02-23T07:23:47;98747.69;;;4.90;76.84
77090;BME280;66028;53.558;9.950;2024-02-23T07:26:12;98759.16;;;4.86;77.22
77090;BME280;66028;53.558;9.950;2024-02-23T07:28:37;98763.13;;;4.83;77.41
77090;BME280;66028;53.558;9.950;2024-02-23T07:31:03;98749.78;;;4.88;76.99
77090;BME280;66028;53.558;9.950;2024-02-23T07:33:28;98754.69;;;4.96;76.77
77090;BME280;66028;53.558;9.950;2024-02-23T07:35:53;98750.91;;;4.92;77.36
77090;BME280;66028;53.558;9.950;2024-02-23T07:38:19;98756.84;;;4.94;77.40
77090;BME280;66028;53.558;9.950;2024-02-23T07:40:44;98777.28;;;5.00;77.37
77090;BME280;66028;53.558;9.950;2024-02-23T07:43:09;98765.13;;;4.93;78.28
77090;BME280;66028;53.558;9.950;2024-02-23T07:45:38;98775.44;;;4.79;80.17
77090;BME280;66028;53.558;9.950;2024-02-23T07:48:04;98764.66;;;4.74;80.21
77090;BME280;66028;53.558;9.950;2024-02-23T07:50:29;98772.69;;;4.74;79.69
77090;BME280;66028;53.558;9.950;2024-02-23T07:52:55;98766.34;;;4.80;78.88
77090;BME280;66028;53.558;9.950;2024-02-23T07:55:20;98767.19;;;4.86;77.52
77090;BME280;66028;53.558;9.950;2024-02-23T07:57:46;98782.56;;;4.95;77.94
77090;BME280;66028;53.558;9.950;2024-02-23T08:00:11;98779.56;;;5.14;77.11
77090;BME280;66028;53.558;9.950;2024-02-23T08:02:37;98781.75;;;5.49;74.84
77090;BME280;66028;53.558;9.950;2024-02-23T08:05:02;98797.66;;;5.87;74.07
77090;BME280;66028;53.558;9.950;2024-02-23T08:07:28;98801.31;;;6.08;71.92
77090;BME280;66028;53.558;9.950;2024-02-23T08:09:55;98822.31;;;6.11;70.65
77090;BME280;66028;53.558;9.950;2024-02-23T08:12:21;98789.09;;;6.27;69.99
77090;BME280;66028;53.558;9.950;2024-02-23T08:14:46;98794.84;;;6.46;69.63
77090;BME280;66028;53.558;9.950;2024-02-23T08:17:13;98798.91;;;6.54;68.83
77090;BME280;66028;53.558;9.950;2024-02-23T08:19:39;98797.31;;;6.58;69.12
77090;BME280;66028;53.558;9.950;2024-02-23T08:22:04;98805.53;;;6.88;67.87
77090;BME280;66028;53.558;9.950;2024-02-23T08:24:29;98800.38;;;6.81;66.85
77090;BME280;66028;53.558;9.950;2024-02-23T08:26:55;98805.22;;;6.84;67.97
77090;BME280;66028;53.558;9.950;2024-02-23T08:29:20;98803.88;;;6.82;66.45
77090;BME280;66028;53.558;9.950;2024-02-23T08:31:45;98819.06;;;7.18;67.31
77090;BME280;66028;53.558;9.950;2024-02-23T08:34:11;98828.22;;;7.12;66.33
77090;BME280;66028;53.558;9.950;2024-02-23T08:36:36;98819.06;;;7.18;64.89
77090;BME280;66028;53.558;9.950;2024-02-23T08:39:01;98838.41;;;7.15;65.48
77090;BME280;66028;53.558;9.950;2024-02-23T08:41:28;98837.88;;;7.13;65.97
77090;BME280;66028;53.558;9.950;2024-02-23T08:43:53;98845.53;;;6.79;66.07
77090;BME280;66028;53.558;9.950;2024-02-23T08:46:19;98850.75;;;6.96;66.31
77090;BME280;66028;53.558;9.950;2024-02-23T08:48:44;98852.72;;;7.26;65.46
77090;BME280;66028;53.558;9.950;2024-02-23T08:51:10;98859.91;;;7.00;65.30
77090;BME280;66028;53.558;9.950;2024-02-23T08:53:35;98860.09;;;6.83;66.75
77090;BME280;66028;53.558;9.950;2024-02-23T08:56:03;98864.09;;;6.76;66.29
77090;BME280;66028;53.558;9.950;2024-02-23T08:58:28;98865.44;;;6.78;66.21
77090;BME280;66028;53.558;9.950;2024-02-23T09:00:53;98865.38;;;6.63;66.81
77090;BME280;66028;53.558;9.950;2024-02-23T09:03:19;98870.88;;;6.88;65.98
77090;BME280;66028;53.558;9.950;2024-02-23T09:05:44;98877.13;;;7.04;65.39
77090;BME280;66028;53.558;9.950;2024-02-23T09:08:12;98875.78;;;7.02;65.65
77090;BME280;66028;53.558;9.950;2024-02-23T09:10:37;98885.94;;;6.84;66.07
77090;BME280;66028;53.558;9.950;2024-02-23T09:13:02;98893.16;;;6.79;66.27
77090;BME280;66028;53.558;9.950;2024-02-23T09:15:28;98892.94;;;6.85;66.25
77090;BME280;66028;53.558;9.950;2024-02-23T09:17:53;98897.50;;;6.90;65.61
77090;BME280;66028;53.558;9.950;2024-02-23T09:20:18;98906.97;;;6.98;65.64
77090;BME280;66028;53.558;9.950;2024-02-23T09:22:44;98903.97;;;6.89;65.33
77090;BME280;66028;53.558;9.950;2024-02-23T09:25:09;98902.28;;;6.73;66.32
77090;BME280;66028;53.558;9.950;2024-02-23T09:27:34;98915.53;;;6.84;66.08
77090;BME280;66028;53.558;9.950;2024-02-23T09:30:04;98916.59;;;6.83;64.98
77090;BME280;66028;53.558;9.950;2024-02-23T09:32:29;98911.41;;;6.72;64.90
77090;BME280;66028;53.558;9.950;2024-02-23T09:34:54;98916.28;;;6.80;65.19
77090;BME280;66028;53.558;9.950;2024-02-23T09:37:20;98923.59;;;6.84;65.09
77090;BME280;66028;53.558;9.950;2024-02-23T09:39:45;98924.75;;;7.04;64.72
77090;BME280;66028;53.558;9.950;2024-02-23T09:42:10;98921.97;;;6.88;64.41
77090;BME280;66028;53.558;9.950;2024-02-23T09:44:36;98935.78;;;6.97;64.81
77090;BME280;66028;53.558;9.950;2024-02-23T09:47:05;98950.38;;;7.11;64.04
77090;BME280;66028;53.558;9.950;2024-02-23T09:49:39;98946.38;;;7.19;64.54
77090;BME280;66028;53.558;9.950;2024-02-23T09:52:07;98941.66;;;7.46;63.81
77090;BME280;66028;53.558;9.950;2024-02-23T09:54:34;98964.53;;;7.54;64.38
77090;BME280;66028;53.558;9.950;2024-02-23T09:57:00;98960.00;;;7.59;62.86
77090;BME280;66028;53.558;9.950;2024-02-23T09:59:26;98965.06;;;7.46;61.86
77090;BME280;66028;53.558;9.950;2024-02-23T10:01:53;98966.09;;;7.35;63.25
77090;BME280;66028;53.558;9.950;2024-02-23T10:04:19;98968.03;;;7.44;62.72
77090;BME280;66028;53.558;9.950;2024-02-23T10:06:44;98982.28;;;7.50;63.16
77090;BME280;66028;53.558;9.950;2024-02-23T10:09:09;98971.03;;;7.58;62.11
77090;BME280;66028;53.558;9.950;2024-02-23T10:11:37;98984.72;;;7.51;62.18
77090;BME280;66028;53.558;9.950;2024-02-23T10:14:02;98987.78;;;7.70;62.30
77090;BME280;66028;53.558;9.950;2024-02-23T10:16:27;99001.22;;;7.65;61.81
77090;BME280;66028;53.558;9.950;2024-02-23T10:18:53;98993.16;;;7.70;62.01
77090;BME280;66028;53.558;9.950;2024-02-23T10:21:18;99002.09;;;7.86;60.77
77090;BME280;66028;53.558;9.950;2024-02-23T10:23:44;98998.00;;;7.73;61.23
77090;BME280;66028;53.558;9.950;2024-02-23T10:26:09;99005.56;;;7.71;61.96
77090;BME280;66028;53.558;9.950;2024-02-23T10:28:36;99008.31;;;7.91;60.99
77090;BME280;66028;53.558;9.950;2024-02-23T10:31:04;99015.28;;;7.77;61.09
77090;BME280;66028;53.558;9.950;2024-02-23T10:33:29;99031.13;;;7.69;61.19
77090;BME280;66028;53.558;9.950;2024-02-23T10:35:57;99020.09;;;7.70;61.00
77090;BME280;66028;53.558;9.950;2024-02-23T10:38:23;99024.09;;;7.63;60.74
77090;BME280;66028;53.558;9.950;2024-02-23T10:40:48;99022.03;;;7.80;61.05
77090;BME280;66028;53.558;9.950;2024-02-23T10:43:19;99017.69;;;7.79;59.89
77090;BME280;66028;53.558;9.950;2024-02-23T10:45:46;99016.66;;;7.90;60.24
77090;BME280;66028;53.558;9.950;2024-02-23T10:48:11;99025.03;;;7.99;60.77
77090;BME280;66028;53.558;9.950;2024-02-23T10:50:37;99012.88;;;7.91;59.55
77090;BME280;66028;53.558;9.950;2024-02-23T10:53:07;99030.63;;;7.77;59.74
77090;BME280;66028;53.558;9.950;2024-02-23T10:55:37;99040.00;;;7.64;60.48
77090;BME280;66028;53.558;9.950;2024-02-23T10:58:05;99032.44;;;7.56;60.41
77090;BME280;66028;53.558;9.950;2024-02-23T11:00:33;99046.97;;;7.55;60.89
77090;BME280;66028;53.558;9.950;2024-02-23T11:02:58;99046.19;;;7.65;60.92
77090;BME280;66028;53.558;9.950;2024-02-23T11:05:24;99036.81;;;7.72;60.38
77090;BME280;66028;53.558;9.950;2024-02-23T11:07:50;99049.78;;;7.85;60.36
77090;BME280;66028;53.558;9.950;2024-02-23T11:10:16;99037.44;;;8.00;59.63
77090;BME280;66028;53.558;9.950;2024-02-23T11:12:42;99044.47;;;8.06;59.67
77090;BME280;66028;53.558;9.950;2024-02-23T11:15:08;99035.56;;;8.05;59.00
77090;BME280;66028;53.558;9.950;2024-02-23T11:17:35;99038.53;;;8.04;59.79
77090;BME280;66028;53.558;9.950;2024-02-23T11:20:03;99035.00;;;7.98;58.99
77090;BME280;66028;53.558;9.950;2024-02-23T11:22:33;99038.47;;;7.83;59.11
77090;BME280;66028;53.558;9.950;2024-02-23T11:25:04;99044.59;;;7.74;59.86
77090;BME280;66028;53.558;9.950;2024-02-23T11:27:31;99038.69;;;7.77;60.15
77090;BME280;66028;53.558;9.950;2024-02-23T11:30:06;99036.81;;;7.77;59.73
77090;BME280;66028;53.558;9.950;2024-02-23T11:32:46;99050.03;;;7.79;59.55
77090;BME280;66028;53.558;9.950;2024-02-23T11:35:14;99049.25;;;7.88;60.00
77090;BME280;66028;53.558;9.950;2024-02-23T11:37:53;99031.50;;;7.92;59.17
77090;BME280;66028;53.558;9.950;2024-02-23T11:40:25;99029.91;;;8.02;59.19
77090;BME280;66028;53.558;9.950;2024-02-23T11:42:50;99023.97;;;8.00;58.87
77090;BME280;66028;53.558;9.950;2024-02-23T11:45:15;99022.91;;;8.06;58.59
77090;BME280;66028;53.558;9.950;2024-02-23T11:47:41;99031.56;;;8.23;58.80
77090;BME280;66028;53.558;9.950;2024-02-23T11:50:08;99027.06;;;8.64;58.08
77090;BME280;66028;53.558;9.950;2024-02-23T11:52:34;99029.47;;;8.71;57.50
77090;BME280;66028;53.558;9.950;2024-02-23T11:54:59;99037.59;;;8.55;57.52
77090;BME280;66028;53.558;9.950;2024-02-23T11:57:24;99035.06;;;8.23;58.67
77090;BME280;66028;53.558;9.950;2024-02-23T11:59:51;99027.47;;;8.00;57.99
77090;BME280;66028;53.558;9.950;2024-02-23T12:02:17;99026.91;;;7.93;57.97
77090;BME280;66028;53.558;9.950;2024-02-23T12:04:42;99042.78;;;7.89;58.43
77090;BME280;66028;53.558;9.950;2024-02-23T12:07:08;99032.34;;;8.03;57.93
77090;BME280;66028;53.558;9.950;2024-02-23T12:09:33;99035.06;;;8.18;58.25
77090;BME280;66028;53.558;9.950;2024-02-23T12:11:58;99027.03;;;8.34;57.23
77090;BME280;66028;53.558;9.950;2024-02-23T12:14:24;99030.53;;;8.39;57.52
77090;BME280;66028;53.558;9.950;2024-02-23T12:16:51;99027.81;;;8.29;57.25
77090;BME280;66028;53.558;9.950;2024-02-23T12:19:16;99030.47;;;8.14;57.59
77090;BME280;66028;53.558;9.950;2024-02-23T12:21:44;99036.09;;;8.02;57.69
77090;BME280;66028;53.558;9.950;2024-02-23T12:24:10;99030.22;;;8.15;57.97
77090;BME280;66028;53.558;9.950;2024-02-23T12:26:35;99041.78;;;8.11;57.50
77090;BME280;66028;53.558;9.950;2024-02-23T12:29:02;99038.28;;;8.05;55.98
77090;BME280;66028;53.558;9.950;2024-02-23T12:31:28;99041.75;;;7.95;57.02
77090;BME280;66028;53.558;9.950;2024-02-23T12:33:53;99056.25;;;7.89;57.65
77090;BME280;66028;53.558;9.950;2024-02-23T12:36:18;99043.06;;;7.83;57.63
77090;BME280;66028;53.558;9.950;2024-02-23T12:38:43;99044.44;;;7.95;57.42
77090;BME280;66028;53.558;9.950;2024-02-23T12:41:09;99040.97;;;8.10;56.70
77090;BME280;66028;53.558;9.950;2024-02-23T12:43:34;99038.03;;;8.27;56.42
77090;BME280;66028;53.558;9.950;2024-02-23T12:45:59;99044.53;;;8.31;55.57
77090;BME280;66028;53.558;9.950;2024-02-23T12:48:26;99034.59;;;8.37;55.57
77090;BME280;66028;53.558;9.950;2024-02-23T12:50:52;99031.03;;;8.21;55.86
77090;BME280;66028;53.558;9.950;2024-02-23T12:53:37;99035.94;;;8.49;55.12
77090;BME280;66028;53.558;9.950;2024-02-23T12:56:06;99029.19;;;8.47;55.39
77090;BME280;66028;53.558;9.950;2024-02-23T12:58:38;99031.94;;;8.57;55.18
77090;BME280;66028;53.558;9.950;2024-02-23T13:01:04;99024.06;;;8.45;55.26
77090;BME280;66028;53.558;9.950;2024-02-23T13:03:31;99040.53;;;8.49;54.81